sensor_id;sensor_type;location;lat;lon;timestamp;pressure;altitude;pressure_sealevel;temperature;humidity
48386;BME280;34644;47.964;7.982;2023-02-08T00:05:28;98246.41;;;15.07;53.96
48386;BME280;34644;47.964;7.982;2023-02-08T00:12:28;98236.81;;;15.06;53.84
48386;BME280;34644;47.964;7.982;2023-02-08T00:19:28;98239.69;;;15.05;54.10
48386;BME280;34644;47.964;7.982;2023-02-08T00:26:29;98230.31;;;15.02;54.30
48386;BME280;34644;47.964;7.982;2023-02-08T00:33:29;98216.44;;;15.00;54.35
48386;BME280;34644;47.964;7.982;2023-02-08T00:40:29;98215.88;;;14.98;54.43
48386;BME280;34644;47.964;7.982;2023-02-08T00:47:30;98209.16;;;14.95;54.42
48386;BME280;34644;47.964;7.982;2023-02-08T00:54:31;98198.75;;;14.94;54.61
48386;BME280;34644;47.964;7.982;2023-02-08T01:01:31;98185.94;;;14.91;54.74
48386;BME280;34644;47.964;7.982;2023-02-08T01:08:31;98188.00;;;14.89;54.87
48386;BME280;34644;47.964;7.982;2023-02-08T01:15:32;98175.53;;;14.89;54.87
48386;BME280;34644;47.964;7.982;2023-02-08T01:22:32;98172.53;;;14.86;54.89
48386;BME280;34644;47.964;7.982;2023-02-08T01:29:34;98161.09;;;14.85;54.89
48386;BME280;34644;47.964;7.982;2023-02-08T01:36:34;98152.75;;;14.81;54.94
48386;BME280;34644;47.964;7.982;2023-02-08T01:43:57;98146.41;;;14.82;54.99
48386;BME280;34644;47.964;7.982;2023-02-08T01:51:06;98138.69;;;14.81;55.26
48386;BME280;34644;47.964;7.982;2023-02-08T01:58:09;98133.94;;;14.83;55.22
48386;BME280;34644;47.964;7.982;2023-02-08T02:05:10;98134.09;;;14.88;55.34
48386;BME280;34644;47.964;7.982;2023-02-08T02:12:10;98130.31;;;14.96;55.15
48386;BME280;34644;47.964;7.982;2023-02-08T02:19:25;98131.50;;;15.00;55.26
48386;BME280;34644;47.964;7.982;2023-02-08T02:41:18;98113.47;;;15.02;55.40
48386;BME280;34644;47.964;7.982;2023-02-08T02:55:50;98110.03;;;15.01;55.38
48386;BME280;34644;47.964;7.982;2023-02-08T03:02:53;98117.19;;;15.01;55.60
48386;BME280;34644;47.964;7.982;2023-02-08T03:24:51;98119.13;;;14.94;55.74
48386;BME280;34644;47.964;7.982;2023-02-08T03:31:32;98122.81;;;14.93;55.72
48386;BME280;34644;47.964;7.982;2023-02-08T03:38:36;98116.91;;;14.91;55.91
48386;BME280;34644;47.964;7.982;2023-02-08T03:45:39;98114.25;;;14.91;55.66
48386;BME280;34644;47.964;7.982;2023-02-08T03:52:43;98123.84;;;14.92;56.00
48386;BME280;34644;47.964;7.982;2023-02-08T03:59:46;98113.69;;;14.89;55.93
48386;BME280;34644;47.964;7.982;2023-02-08T04:06:48;98101.44;;;14.88;56.03
48386;BME280;34644;47.964;7.982;2023-02-08T04:13:49;98099.22;;;14.84;56.21
48386;BME280;34644;47.964;7.982;2023-02-08T04:20:49;98092.53;;;14.82;56.15
48386;BME280;34644;47.964;7.982;2023-02-08T04:27:49;98092.03;;;14.73;56.37
48386;BME280;34644;47.964;7.982;2023-02-08T04:34:50;98094.09;;;14.71;56.51
48386;BME280;34644;47.964;7.982;2023-02-08T04:41:50;98094.22;;;14.76;56.30
48386;BME280;34644;47.964;7.982;2023-02-08T04:48:50;98094.91;;;12.18;35.27
48386;BME280;34644;47.964;7.982;2023-02-08T04:55:51;98093.41;;;14.02;42.91
48386;BME280;34644;47.964;7.982;2023-02-08T05:02:52;98079.66;;;14.30;46.71
48386;BME280;34644;47.964;7.982;2023-02-08T05:09:52;98085.41;;;14.45;48.66
48386;BME280;34644;47.964;7.982;2023-02-08T05:16:52;98068.97;;;14.74;49.27
48386;BME280;34644;47.964;7.982;2023-02-08T05:23:53;98065.56;;;14.97;49.72
48386;BME280;34644;47.964;7.982;2023-02-08T05:30:53;98066.31;;;15.04;50.21
48386;BME280;34644;47.964;7.982;2023-02-08T05:37:53;98062.13;;;15.08;50.61
48386;BME280;34644;47.964;7.982;2023-02-08T05:44:53;98062.41;;;14.39;46.79
48386;BME280;34644;47.964;7.982;2023-02-08T05:51:54;98071.53;;;14.06;43.34
48386;BME280;34644;47.964;7.982;2023-02-08T05:58:54;98077.13;;;14.35;46.09
48386;BME280;34644;47.964;7.982;2023-02-08T06:05:54;98086.25;;;14.58;47.49
48386;BME280;34644;47.964;7.982;2023-02-08T06:12:55;98090.91;;;14.62;48.79
48386;BME280;34644;47.964;7.982;2023-02-08T06:19:57;98086.94;;;14.72;49.40
48386;BME280;34644;47.964;7.982;2023-02-08T06:26:57;98088.22;;;14.69;49.98
48386;BME280;34644;47.964;7.982;2023-02-08T06:33:58;98094.53;;;14.68;50.60
48386;BME280;34644;47.964;7.982;2023-02-08T06:40:58;98089.47;;;14.67;50.86
48386;BME280;34644;47.964;7.982;2023-02-08T06:47:59;98097.88;;;14.63;50.95
48386;BME280;34644;47.964;7.982;2023-02-08T06:54:59;98107.69;;;14.63;51.34
48386;BME280;34644;47.964;7.982;2023-02-08T07:02:00;98099.09;;;14.61;51.44
48386;BME280;34644;47.964;7.982;2023-02-08T07:09:00;98120.09;;;14.62;51.41
48386;BME280;34644;47.964;7.982;2023-02-08T07:16:02;98114.13;;;14.67;51.11
48386;BME280;34644;47.964;7.982;2023-02-08T07:23:02;98124.91;;;14.72;51.29
48386;BME280;34644;47.964;7.982;2023-02-08T07:30:03;98137.28;;;14.78;51.13
48386;BME280;34644;47.964;7.982;2023-02-08T07:37:04;98143.53;;;14.84;51.17
48386;BME280;34644;47.964;7.982;2023-02-08T07:44:04;98137.88;;;14.80;51.53
48386;BME280;34644;47.964;7.982;2023-02-08T07:51:04;98152.75;;;14.81;51.43
48386;BME280;34644;47.964;7.982;2023-02-08T07:58:05;98152.69;;;14.88;51.32
48386;BME280;34644;47.964;7.982;2023-02-08T08:05:05;98153.19;;;14.97;51.25
48386;BME280;34644;47.964;7.982;2023-02-08T08:12:06;98148.88;;;15.14;51.15
48386;BME280;34644;47.964;7.982;2023-02-08T08:19:06;98147.38;;;15.61;49.43
48386;BME280;34644;47.964;7.982;2023-02-08T08:26:10;98148.63;;;15.88;48.49
48386;BME280;34644;47.964;7.982;2023-02-08T08:33:12;98140.78;;;16.05;47.96
48386;BME280;34644;47.964;7.982;2023-02-08T08:40:13;98135.56;;;16.10;47.72
48386;BME280;34644;47.964;7.982;2023-02-08T08:47:13;98127.34;;;16.12;47.54
48386;BME280;34644;47.964;7.982;2023-02-08T08:54:14;98126.75;;;16.22;47.56
48386;BME280;34644;47.964;7.982;2023-02-08T09:01:14;98126.41;;;16.42;47.02
48386;BME280;34644;47.964;7.982;2023-02-08T09:08:14;98128.47;;;16.52;46.82
48386;BME280;34644;47.964;7.982;2023-02-08T09:15:15;98125.25;;;16.50;47.18
48386;BME280;34644;47.964;7.982;2023-02-08T09:22:15;98117.59;;;16.53;47.34
48386;BME280;34644;47.964;7.982;2023-02-08T09:29:15;98119.88;;;16.61;47.43
48386;BME280;34644;47.964;7.982;2023-02-08T09:36:16;98114.41;;;16.68;47.51
48386;BME280;34644;47.964;7.982;2023-02-08T09:43:19;98111.97;;;16.78;47.48
48386;BME280;34644;47.964;7.982;2023-02-08T09:57:25;98098.63;;;16.90;47.66
48386;BME280;34644;47.964;7.982;2023-02-08T10:54:16;98084.38;;;17.59;47.61
48386;BME280;34644;47.964;7.982;2023-02-08T11:01:17;98071.69;;;17.66;47.66
48386;BME280;34644;47.964;7.982;2023-02-08T11:08:18;98065.34;;;17.72;47.58
48386;BME280;34644;47.964;7.982;2023-02-08T11:15:22;98061.16;;;17.77;47.67
48386;BME280;34644;47.964;7.982;2023-02-08T11:22:24;98054.94;;;17.88;47.74
48386;BME280;34644;47.964;7.982;2023-02-08T11:29:26;98055.59;;;17.95;47.76
48386;BME280;34644;47.964;7.982;2023-02-08T11:36:29;98041.53;;;18.00;47.77
48386;BME280;34644;47.964;7.982;2023-02-08T11:43:33;98033.59;;;18.05;47.64
48386;BME280;34644;47.964;7.982;2023-02-08T11:50:37;98031.22;;;18.08;47.57
48386;BME280;34644;47.964;7.982;2023-02-08T11:57:50;98038.72;;;18.12;47.40
48386;BME280;34644;47.964;7.982;2023-02-08T12:04:50;98034.78;;;18.14;47.96
48386;BME280;34644;47.964;7.982;2023-02-08T12:12:28;98014.78;;;18.17;47.78
48386;BME280;34644;47.964;7.982;2023-02-08T12:26:22;97996.19;;;18.22;47.87
48386;BME280;34644;47.964;7.982;2023-02-08T12:40:58;97994.88;;;18.24;47.80
48386;BME280;34644;47.964;7.982;2023-02-08T12:48:10;97982.91;;;18.27;48.04
48386;BME280;34644;47.964;7.982;2023-02-08T13:02:29;97987.19;;;18.28;48.20
48386;BME280;34644;47.964;7.982;2023-02-08T13:16:45;97969.84;;;18.31;48.43
48386;BME280;34644;47.964;7.982;2023-02-08T13:23:46;97973.84;;;18.28;48.39
48386;BME280;34644;47.964;7.982;2023-02-08T13:44:57;97955.16;;;18.28;48.18
48386;BME280;34644;47.964;7.982;2023-02-08T13:51:57;97959.69;;;18.27;48.49
48386;BME280;34644;47.964;7.982;2023-02-08T13:58:59;97962.59;;;18.26;48.61
48386;BME280;34644;47.964;7.982;2023-02-08T14:13:20;97966.00;;;18.21;48.58
48386;BME280;34644;47.964;7.982;2023-02-08T14:20:24;97966.25;;;18.20;48.75
48386;BME280;34644;47.964;7.982;2023-02-08T14:34:31;97985.94;;;18.14;48.76
48386;BME280;34644;47.964;7.982;2023-02-08T14:48:53;97977.56;;;18.05;48.64
48386;BME280;34644;47.964;7.982;2023-02-08T15:03:14;97980.34;;;17.93;49.14
48386;BME280;34644;47.964;7.982;2023-02-08T15:10:17;97971.44;;;17.87;49.24
48386;BME280;34644;47.964;7.982;2023-02-08T15:17:30;97973.72;;;17.79;49.26
48386;BME280;34644;47.964;7.982;2023-02-08T15:24:31;97975.78;;;17.71;49.28
48386;BME280;34644;47.964;7.982;2023-02-08T15:31:32;97965.44;;;17.58;49.56
48386;BME280;34644;47.964;7.982;2023-02-08T15:38:34;97967.00;;;17.54;50.02
48386;BME280;34644;47.964;7.982;2023-02-08T15:45:35;97974.41;;;17.52;51.12
48386;BME280;34644;47.964;7.982;2023-02-08T15:52:35;97979.63;;;17.25;50.70
48386;BME280;34644;47.964;7.982;2023-02-08T15:59:37;97982.88;;;17.10;50.86
48386;BME280;34644;47.964;7.982;2023-02-08T16:06:39;97992.22;;;16.95;51.29
48386;BME280;34644;47.964;7.982;2023-02-08T16:13:45;97986.91;;;16.83;51.64
48386;BME280;34644;47.964;7.982;2023-02-08T16:20:54;97993.66;;;16.74;51.78
48386;BME280;34644;47.964;7.982;2023-02-08T16:27:55;98001.72;;;16.62;51.82
48386;BME280;34644;47.964;7.982;2023-02-08T16:34:55;98005.75;;;16.65;52.19
48386;BME280;34644;47.964;7.982;2023-02-08T16:48:56;97995.91;;;16.94;51.46
48386;BME280;34644;47.964;7.982;2023-02-08T16:55:57;97997.06;;;16.98;51.26
48386;BME280;34644;47.964;7.982;2023-02-08T17:02:58;98012.47;;;16.96;51.31
48386;BME280;34644;47.964;7.982;2023-02-08T17:10:00;98005.56;;;16.83;51.60
48386;BME280;34644;47.964;7.982;2023-02-08T17:17:00;98014.59;;;16.82;51.61
48386;BME280;34644;47.964;7.982;2023-02-08T17:24:01;98014.25;;;16.79;51.64
48386;BME280;34644;47.964;7.982;2023-02-08T17:31:01;98015.59;;;16.64;52.14
48386;BME280;34644;47.964;7.982;2023-02-08T17:38:02;98016.19;;;16.95;51.16
48386;BME280;34644;47.964;7.982;2023-02-08T17:45:03;98033.19;;;16.66;52.15
48386;BME280;34644;47.964;7.982;2023-02-08T17:52:04;98027.66;;;16.55;52.47
48386;BME280;34644;47.964;7.982;2023-02-08T17:59:04;98018.78;;;16.50;52.76
48386;BME280;34644;47.964;7.982;2023-02-08T18:06:05;98023.19;;;16.44;52.78
48386;BME280;34644;47.964;7.982;2023-02-08T18:13:05;98020.13;;;16.35;53.02
48386;BME280;34644;47.964;7.982;2023-02-08T18:20:06;98020.59;;;16.32;53.11
48386;BME280;34644;47.964;7.982;2023-02-08T18:27:06;98023.94;;;16.27;53.21
48386;BME280;34644;47.964;7.982;2023-02-08T18:34:07;98027.31;;;16.23;53.27
48386;BME280;34644;47.964;7.982;2023-02-08T18:41:08;98031.56;;;16.24;53.21
48386;BME280;34644;47.964;7.982;2023-02-08T18:48:08;98027.44;;;16.16;53.91
48386;BME280;34644;47.964;7.982;2023-02-08T18:55:09;98035.53;;;16.09;53.92
48386;BME280;34644;47.964;7.982;2023-02-08T19:02:10;98022.38;;;16.03;53.90
48386;BME280;34644;47.964;7.982;2023-02-08T19:09:14;98023.06;;;15.98;53.79
48386;BME280;34644;47.964;7.982;2023-02-08T19:16:15;98028.06;;;15.95;53.94
48386;BME280;34644;47.964;7.982;2023-02-08T19:23:18;98017.31;;;15.89;54.19
48386;BME280;34644;47.964;7.982;2023-02-08T19:30:18;98013.16;;;15.82;54.70
48386;BME280;34644;47.964;7.982;2023-02-08T19:37:19;98000.56;;;15.77;55.01
48386;BME280;34644;47.964;7.982;2023-02-08T19:44:19;97996.72;;;15.73;54.97
48386;BME280;34644;47.964;7.982;2023-02-08T19:51:20;97994.56;;;13.57;39.45
48386;BME280;34644;47.964;7.982;2023-02-08T19:58:23;97998.22;;;13.56;40.58
48386;BME280;34644;47.964;7.982;2023-02-08T20:05:26;98021.50;;;12.97;37.94
48386;BME280;34644;47.964;7.982;2023-02-08T20:12:26;97999.66;;;14.33;42.34
48386;BME280;34644;47.964;7.982;2023-02-08T20:19:26;97986.75;;;15.09;44.35
48386;BME280;34644;47.964;7.982;2023-02-08T20:26:27;97985.16;;;15.55;44.94
48386;BME280;34644;47.964;7.982;2023-02-08T20:33:28;97982.41;;;15.74;45.23
48386;BME280;34644;47.964;7.982;2023-02-08T20:40:29;97999.63;;;15.83;45.70
48386;BME280;34644;47.964;7.982;2023-02-08T20:47:30;98000.34;;;15.79;46.15
48386;BME280;34644;47.964;7.982;2023-02-08T20:54:31;98000.56;;;15.77;46.98
48386;BME280;34644;47.964;7.982;2023-02-08T21:01:32;98003.66;;;15.74;47.54
48386;BME280;34644;47.964;7.982;2023-02-08T21:08:35;97999.03;;;15.69;47.89
48386;BME280;34644;47.964;7.982;2023-02-08T21:15:40;98004.59;;;15.68;48.07
48386;BME280;34644;47.964;7.982;2023-02-08T21:22:40;97994.97;;;15.67;48.43
48386;BME280;34644;47.964;7.982;2023-02-08T21:29:41;97999.63;;;15.60;48.89
48386;BME280;34644;47.964;7.982;2023-02-08T21:36:41;97994.19;;;15.54;49.21
48386;BME280;34644;47.964;7.982;2023-02-08T21:43:41;97987.72;;;15.50;49.22
48386;BME280;34644;47.964;7.982;2023-02-08T21:50:42;97992.09;;;15.45;49.54
48386;BME280;34644;47.964;7.982;2023-02-08T21:58:01;97989.09;;;15.41;49.53
48386;BME280;34644;47.964;7.982;2023-02-08T22:05:01;98001.56;;;14.75;45.36
48386;BME280;34644;47.964;7.982;2023-02-08T22:12:02;97988.28;;;14.44;42.77
48386;BME280;34644;47.964;7.982;2023-02-08T22:19:03;97993.81;;;14.24;41.71
48386;BME280;34644;47.964;7.982;2023-02-08T22:26:07;97993.72;;;14.68;44.64
48386;BME280;34644;47.964;7.982;2023-02-08T22:33:07;97995.81;;;14.78;46.54
48386;BME280;34644;47.964;7.982;2023-02-08T22:40:08;97991.00;;;14.87;46.93
48386;BME280;34644;47.964;7.982;2023-02-08T22:47:09;97993.31;;;14.95;48.12
48386;BME280;34644;47.964;7.982;2023-02-08T22:54:10;97990.66;;;14.95;48.23
48386;BME280;34644;47.964;7.982;2023-02-08T23:01:11;97998.63;;;14.95;48.82
48386;BME280;34644;47.964;7.982;2023-02-08T23:08:12;97986.38;;;14.94;48.95
48386;BME280;34644;47.964;7.982;2023-02-08T23:15:13;97985.59;;;14.93;49.38
48386;BME280;34644;47.964;7.982;2023-02-08T23:22:13;97989.50;;;14.91;49.69
48386;BME280;34644;47.964;7.982;2023-02-08T23:29:13;97978.06;;;14.90;50.13
48386;BME280;34644;47.964;7.982;2023-02-08T23:36:14;97980.94;;;14.89;50.45
48386;BME280;34644;47.964;7.982;2023-02-08T23:43:15;97983.84;;;14.87;50.61
48386;BME280;34644;47.964;7.982;2023-02-08T23:50:16;97971.59;;;14.86;50.91
48386;BME280;34644;47.964;7.982;2023-02-08T23:57:16;97968.13;;;14.86;50.79
